Swoope, Virginia
Current Conditions -  °F | °C
As of 3:55 AM on Sunday 23 Nov 2014 (Local Time) from KW13 Reporting Station
Scattered Clouds Scattered Clouds  
Wind Chill: 34°   Ceiling: Unl
Heat Index: 34°   Visibility: 10mi
Dew Point: 18°   Wind: 0mph
Humidity: 53%   Direction: NA
Pressure: 30.19"   Gusts: NA
Location:  38.16°N, 79.21°W
Report Text: KW13 230855Z AUTO 00000KT 10SM SCT090 01/M08 A3019 RMK AO1 T00101077
Loading
Personal Weather Stations






























Interactive Weather Map New forecast layout! Learn more

10-Day Weather Forecast

Advertisements
Track Severe Weather on mobile